createdAt,value
2023-03-30T03:14:26.397Z,14.44
2023-03-30T03:19:27.755Z,14.39
2023-03-30T03:24:29.147Z,14.38
2023-03-30T03:29:30.509Z,14.35
2023-03-30T03:34:32.957Z,14.35
2023-03-30T03:39:35.639Z,14.37
2023-03-30T03:44:37.642Z,14.39
2023-03-30T03:49:39.513Z,14.55
2023-03-30T03:54:40.947Z,14.34
2023-03-30T03:59:42.405Z,13.89
2023-03-30T04:04:44.152Z,13.75
2023-03-30T04:09:45.831Z,13.65
2023-03-30T04:14:47.309Z,13.57
2023-03-30T04:19:53.723Z,13.60
2023-03-30T04:24:55.419Z,13.73
2023-03-30T04:29:59.468Z,13.86
2023-03-30T04:35:01.902Z,13.90
2023-03-30T04:40:09.237Z,13.91
2023-03-30T04:45:10.696Z,13.86
2023-03-30T04:50:12.854Z,13.81
2023-03-30T04:55:14.277Z,13.76
2023-03-30T05:00:17.408Z,13.74
2023-03-30T05:05:18.861Z,13.71
2023-03-30T05:10:20.464Z,13.56
2023-03-30T05:15:22.670Z,13.44
2023-03-30T05:20:25.018Z,13.40
2023-03-30T05:25:27.098Z,13.29
2023-03-30T05:30:28.653Z,13.10
2023-03-30T05:35:30.892Z,12.90
2023-03-30T05:40:32.264Z,12.86
2023-03-30T05:45:33.760Z,12.80
2023-03-30T05:50:36.802Z,12.80
2023-03-30T05:55:38.483Z,12.80
2023-03-30T06:00:41.396Z,12.80
2023-03-30T06:05:43.731Z,12.84
2023-03-30T06:10:52.330Z,12.85
2023-03-30T06:15:53.720Z,12.88
2023-03-30T06:20:55.260Z,12.94
2023-03-30T06:25:57.636Z,12.94
2023-03-30T06:31:01.523Z,13.03
2023-03-30T06:36:04.046Z,13.05
2023-03-30T06:41:08.349Z,13.08
2023-03-30T06:46:11.241Z,13.11
2023-03-30T06:51:13.823Z,13.12
2023-03-30T06:56:15.548Z,13.16
2023-03-30T07:01:17.030Z,13.22
2023-03-30T07:06:20.728Z,13.31
2023-03-30T07:11:23.072Z,13.40
2023-03-30T07:16:25.578Z,13.54
2023-03-30T07:21:27.151Z,13.69
2023-03-30T07:26:29.540Z,13.83
2023-03-30T07:31:31.163Z,14.00
2023-03-30T07:36:32.512Z,14.13
2023-03-30T07:41:34.466Z,14.22
2023-03-30T07:46:36.039Z,14.36
2023-03-30T07:51:37.415Z,14.47
2023-03-30T07:56:39.522Z,14.53
2023-03-30T08:01:40.881Z,14.70
2023-03-30T08:06:42.699Z,14.78
2023-03-30T08:11:44.249Z,14.89
2023-03-30T08:16:45.665Z,14.92
2023-03-30T08:21:47.412Z,14.94
2023-03-30T08:26:48.760Z,15.04
2023-03-30T08:31:53.757Z,15.18
2023-03-30T08:36:55.389Z,15.31
2023-03-30T08:41:59.656Z,15.48
2023-03-30T08:47:04.104Z,15.62
2023-03-30T08:52:06.092Z,15.88
2023-03-30T08:57:42.708Z,16.17
2023-03-30T09:02:48.044Z,16.29
2023-03-30T09:08:03.083Z,16.45
2023-03-30T09:13:06.352Z,16.45
2023-03-30T09:18:21.271Z,16.54
2023-03-30T09:23:24.557Z,16.63
2023-03-30T09:29:10.546Z,16.59
2023-03-30T09:34:35.899Z,16.56
2023-03-30T09:39:38.358Z,16.58
2023-03-30T09:44:52.832Z,16.60
2023-03-30T09:50:02.525Z,16.56
2023-03-30T09:55:22.192Z,16.70
2023-03-30T10:00:23.621Z,16.74
2023-03-30T10:05:26.288Z,16.76
2023-03-30T10:10:32.679Z,16.94
2023-03-30T10:15:38.439Z,17.00
2023-03-30T10:20:41.388Z,17.11
2023-03-30T10:25:43.634Z,17.21
2023-03-30T10:31:16.100Z,17.37
2023-03-30T10:36:19.342Z,17.73
2023-03-30T10:41:23.616Z,17.69
2023-03-30T10:46:25.153Z,17.59
2023-03-30T10:51:29.344Z,17.50
2023-03-30T10:56:39.939Z,17.53
2023-03-30T11:01:53.210Z,17.69
2023-03-30T11:06:57.831Z,18.15
2023-03-30T11:12:05.055Z,18.33
2023-03-30T11:17:12.725Z,18.37
2023-03-30T11:22:32.956Z,18.33
2023-03-30T11:27:43.672Z,18.31
2023-03-30T11:32:57.363Z,18.27
2023-03-30T11:38:12.687Z,18.50
2023-03-30T11:43:16.895Z,18.83
2023-03-30T11:48:41.006Z,19.34
2023-03-30T11:54:04.516Z,19.50
2023-03-30T11:59:36.313Z,19.89
2023-03-30T12:04:56.771Z,20.09
2023-03-30T12:10:08.295Z,20.13
2023-03-30T12:15:43.495Z,20.46
2023-03-30T12:20:53.797Z,20.30
2023-03-30T12:26:31.082Z,19.32
2023-03-30T12:32:03.510Z,19.78
2023-03-30T12:37:12.917Z,20.46
2023-03-30T12:42:37.468Z,20.85
2023-03-30T12:47:46.951Z,20.58
2023-03-30T12:53:01.839Z,19.91
2023-03-30T12:58:27.104Z,18.71
2023-03-30T13:03:49.248Z,17.82
2023-03-30T13:08:55.754Z,16.79
2023-03-30T13:13:59.734Z,16.15
2023-03-30T13:19:13.733Z,15.56
2023-03-30T13:24:41.728Z,16.33
2023-03-30T13:29:55.526Z,17.01
2023-03-30T13:35:31.043Z,17.10
2023-03-30T13:40:57.919Z,16.80
2023-03-30T13:46:35.635Z,16.45
2023-03-30T13:51:42.239Z,15.42
2023-03-30T13:56:48.550Z,14.54
2023-03-30T14:01:56.416Z,14.38
2023-03-30T14:06:58.431Z,14.39
2023-03-30T14:12:05.930Z,14.45
2023-03-30T14:17:19.077Z,14.58
2023-03-30T14:22:27.213Z,14.78
2023-03-30T14:27:38.865Z,14.90
2023-03-30T14:32:40.699Z,15.04
2023-03-30T14:42:44.978Z,14.65
2023-03-30T14:47:48.033Z,14.74
2023-03-30T14:52:52.305Z,15.51
2023-03-30T14:57:55.775Z,15.47
2023-03-30T15:03:00.461Z,15.53
2023-03-30T15:08:03.628Z,15.70
2023-03-30T15:13:07.535Z,15.63
2023-03-30T15:18:21.306Z,15.72
2023-03-30T15:23:26.090Z,15.85
2023-03-30T15:28:32.815Z,16.41
2023-03-30T15:33:36.486Z,17.32
2023-03-30T15:38:46.777Z,18.00
2023-03-30T15:43:59.314Z,17.94
2023-03-30T15:49:02.615Z,17.95
2023-03-30T15:54:30.292Z,17.92
2023-03-30T15:59:35.124Z,17.98
2023-03-30T16:04:36.496Z,17.75
2023-03-30T16:09:37.845Z,17.70
2023-03-30T16:14:39.753Z,17.90
2023-03-30T16:19:41.582Z,17.91
2023-03-30T16:24:43.366Z,17.78
2023-03-30T16:29:44.950Z,17.78
2023-03-30T16:34:46.988Z,17.66
2023-03-30T16:39:48.372Z,17.70
2023-03-30T16:44:49.695Z,17.97
2023-03-30T16:49:51.785Z,17.74
2023-03-30T16:54:53.123Z,17.56
2023-03-30T16:59:54.450Z,17.50
2023-03-30T17:04:55.772Z,17.40
2023-03-30T17:09:57.794Z,17.28
2023-03-30T17:14:59.136Z,17.16
2023-03-30T17:20:18.358Z,16.83
2023-03-30T17:25:23.274Z,16.58
2023-03-30T17:30:28.229Z,16.33
2023-03-30T17:35:29.718Z,16.19
2023-03-30T17:40:32.423Z,16.04
2023-03-30T17:45:35.167Z,15.91
2023-03-30T17:50:39.428Z,15.80
2023-03-30T17:55:41.197Z,15.65
2023-03-30T18:00:42.726Z,15.63
2023-03-30T18:05:44.897Z,15.60
2023-03-30T18:10:48.719Z,15.51
2023-03-30T18:15:53.063Z,15.53
2023-03-30T18:21:03.095Z,15.55
2023-03-30T18:26:10.304Z,15.57
2023-03-30T18:31:13.042Z,15.58
2023-03-30T18:36:14.955Z,15.22
2023-03-30T18:41:16.422Z,14.76
2023-03-30T18:46:17.843Z,14.45
2023-03-30T18:51:20.887Z,14.32
2023-03-30T18:56:22.925Z,14.29
2023-03-30T19:01:24.338Z,14.39
2023-03-30T19:06:25.959Z,14.48
2023-03-30T19:11:27.349Z,14.67
2023-03-30T19:16:29.262Z,14.77
2023-03-30T19:21:30.735Z,14.93
2023-03-30T19:26:32.635Z,14.96
2023-03-30T19:31:36.162Z,14.99
2023-03-30T19:36:37.613Z,15.01
2023-03-30T19:41:39.026Z,14.96
2023-03-30T19:46:40.737Z,14.85
2023-03-30T19:51:42.110Z,14.76
2023-03-30T19:56:43.530Z,14.74
2023-03-30T20:01:44.941Z,14.70
2023-03-30T20:06:46.747Z,14.73
2023-03-30T20:11:48.207Z,14.73
2023-03-30T20:16:49.773Z,14.71
2023-03-30T20:21:51.829Z,14.73
2023-03-30T20:26:53.168Z,14.66
2023-03-30T20:31:54.619Z,14.65
2023-03-30T20:36:56.024Z,14.69
2023-03-30T20:41:58.219Z,14.70
2023-03-30T20:46:59.800Z,14.72
2023-03-30T20:52:01.455Z,14.71
2023-03-30T20:57:02.869Z,14.69
2023-03-30T21:02:04.926Z,14.62
2023-03-30T21:07:06.618Z,14.53
2023-03-30T21:12:09.560Z,14.45
2023-03-30T21:17:11.498Z,14.37
2023-03-30T21:22:12.932Z,14.35
2023-03-30T21:27:14.596Z,14.38
2023-03-30T21:32:15.979Z,14.38
2023-03-30T21:37:17.375Z,14.33
2023-03-30T21:42:18.727Z,14.37
2023-03-30T21:47:20.320Z,14.31
2023-03-30T21:52:21.736Z,14.34
2023-03-30T21:57:23.286Z,14.19
2023-03-30T22:02:24.871Z,14.20
2023-03-30T22:07:26.286Z,14.30
2023-03-30T22:12:27.814Z,14.36
2023-03-30T22:17:35.174Z,14.10
2023-03-30T22:22:36.728Z,13.49
2023-03-30T22:27:38.216Z,13.32
2023-03-30T22:32:40.146Z,13.18
2023-03-30T22:37:41.893Z,13.10
2023-03-30T22:42:43.251Z,12.87
2023-03-30T22:47:44.808Z,12.74
2023-03-30T22:52:46.562Z,12.62
2023-03-30T22:57:48.370Z,12.67
2023-03-30T23:02:50.300Z,12.70
2023-03-30T23:07:51.750Z,12.79
2023-03-30T23:12:53.912Z,12.84
2023-03-30T23:17:56.389Z,12.90
2023-03-30T23:22:57.784Z,12.97
2023-03-30T23:28:00.816Z,13.02
2023-03-30T23:33:02.243Z,13.05
2023-03-30T23:38:04.111Z,13.15
2023-03-30T23:43:05.642Z,13.09
2023-03-30T23:48:07.217Z,12.82
2023-03-30T23:53:09.368Z,12.64
2023-03-30T23:58:10.952Z,12.62
